地図

経路データ

SID SEASON NUMBER BASIN SUBBASIN NAME ISO_TIME NATURE LAT LON WMO_WIND WMO_PRES WMO_AGENCY TRACK_TYPE DIST2LAND LANDFALL IFLAG USA_AGENCY USA_ATCF_ID USA_LAT USA_LON USA_RECORD USA_STATUS USA_WIND USA_PRES USA_SSHS USA_R34_NE USA_R34_SE USA_R34_SW USA_R34_NW USA_R50_NE USA_R50_SE USA_R50_SW USA_R50_NW USA_R64_NE USA_R64_SE USA_R64_SW USA_R64_NW USA_POCI USA_ROCI USA_RMW USA_EYE TOKYO_LAT TOKYO_LON TOKYO_GRADE TOKYO_WIND TOKYO_PRES TOKYO_R50_DIR TOKYO_R50_LONG TOKYO_R50_SHORT TOKYO_R30_DIR TOKYO_R30_LONG TOKYO_R30_SHORT TOKYO_LAND CMA_LAT CMA_LON CMA_CAT CMA_WIND CMA_PRES HKO_LAT HKO_LON HKO_CAT HKO_WIND HKO_PRES NEWDELHI_LAT NEWDELHI_LON NEWDELHI_GRADE NEWDELHI_WIND NEWDELHI_PRES NEWDELHI_CI NEWDELHI_DP NEWDELHI_POCI REUNION_LAT REUNION_LON REUNION_TYPE REUNION_WIND REUNION_PRES REUNION_TNUM REUNION_CI REUNION_RMW REUNION_R34_NE REUNION_R34_SE REUNION_R34_SW REUNION_R34_NW REUNION_R50_NE REUNION_R50_SE REUNION_R50_SW REUNION_R50_NW REUNION_R64_NE REUNION_R64_SE REUNION_R64_SW REUNION_R64_NW BOM_LAT BOM_LON BOM_TYPE BOM_WIND BOM_PRES BOM_TNUM BOM_CI BOM_RMW BOM_R34_NE BOM_R34_SE BOM_R34_SW BOM_R34_NW BOM_R50_NE BOM_R50_SE BOM_R50_SW BOM_R50_NW BOM_R64_NE BOM_R64_SE BOM_R64_SW BOM_R64_NW BOM_ROCI BOM_POCI BOM_EYE BOM_POS_METHOD BOM_PRES_METHOD NADI_LAT NADI_LON NADI_CAT NADI_WIND NADI_PRES WELLINGTON_LAT WELLINGTON_LON WELLINGTON_WIND WELLINGTON_PRES DS824_LAT DS824_LON DS824_STAGE DS824_WIND DS824_PRES TD9636_LAT TD9636_LON TD9636_STAGE TD9636_WIND TD9636_PRES TD9635_LAT TD9635_LON TD9635_WIND TD9635_PRES TD9635_ROCI NEUMANN_LAT NEUMANN_LON NEUMANN_CLASS NEUMANN_WIND NEUMANN_PRES MLC_LAT MLC_LON MLC_CLASS MLC_WIND MLC_PRES USA_GUST BOM_GUST BOM_GUST_PER REUNION_GUST REUNION_GUST_PER USA_SEAHGT USA_SEARAD_NE USA_SEARAD_SE USA_SEARAD_SW USA_SEARAD_NW STORM_SPEED STORM_DIR
2000222N28286 2000 60 NA NA NOT_NAMED 2000-08-08 12:00:00 TS 28.2000 -74.2000 30 1011 hurdat_atl main 512 483 O_____________ hurdat_atl AL042000 28.2000 -74.2000 TD 30 1011 -1 8 263
2000222N28286 2000 60 NA NA NOT_NAMED 2000-08-08 15:00:00 TS 28.1503 -74.6476 main 483 441 P_____________ AL042000 28.1503 -74.6476 TD 30 1010 -1 8 263
2000222N28286 2000 60 NA NA NOT_NAMED 2000-08-08 18:00:00 TS 28.1000 -75.1000 30 1010 hurdat_atl main 441 417 O_____________ hurdat_atl AL042000 28.1000 -75.1000 TD 30 1010 -1 8 263
2000222N28286 2000 60 NA NA NOT_NAMED 2000-08-08 21:00:00 TS 28.0499 -75.5575 main 402 380 P_____________ AL042000 28.0499 -75.5575 TD 30 1010 -1 8 263
2000222N28286 2000 60 NA NA NOT_NAMED 2000-08-09 00:00:00 TS 28.0000 -76.0000 30 1010 hurdat_atl main 380 350 O_____________ hurdat_atl AL042000 28.0000 -76.0000 TD 30 1010 -1 8 262
2000222N28286 2000 60 NA NA NOT_NAMED 2000-08-09 03:00:00 TS 27.9424 -76.4225 main 350 334 P_____________ AL042000 27.9424 -76.4225 TD 30 1010 -1 7 262
2000222N28286 2000 60 NA NA NOT_NAMED 2000-08-09 06:00:00 TS 27.9000 -76.8000 30 1010 hurdat_atl main 334 311 O_____________ hurdat_atl AL042000 27.9000 -76.8000 TD 30 1010 -1 6 265
2000222N28286 2000 60 NA NA NOT_NAMED 2000-08-09 09:00:00 TS 27.8924 -77.1224 main 311 284 P_____________ AL042000 27.8924 -77.1224 TD 30 1010 -1 5 270
2000222N28286 2000 60 NA NA NOT_NAMED 2000-08-09 12:00:00 TS 27.9000 -77.4000 30 1010 hurdat_atl main 284 266 O_____________ hurdat_atl AL042000 27.9000 -77.4000 TD 30 1010 -1 5 270
2000222N28286 2000 60 NA NA NOT_NAMED 2000-08-09 15:00:00 TS 27.8923 -77.6426 main 266 239 P_____________ AL042000 27.8923 -77.6426 TD 30 1010 -1 4 270
2000222N28286 2000 60 NA NA NOT_NAMED 2000-08-09 18:00:00 TS 27.9000 -77.9000 30 1010 hurdat_atl main 239 211 O_____________ hurdat_atl AL042000 27.9000 -77.9000 TD 30 1010 -1 5 274
2000222N28286 2000 60 NA NA NOT_NAMED 2000-08-09 21:00:00 TS 27.9275 -78.2351 main 211 180 P_____________ AL042000 27.9275 -78.2351 TD 30 1009 -1 6 279
2000222N28286 2000 60 NA NA NOT_NAMED 2000-08-10 00:00:00 TS 28.0000 -78.6000 30 1009 hurdat_atl main 180 148 O_____________ hurdat_atl AL042000 28.0000 -78.6000 TD 30 1009 -1 7 286
2000222N28286 2000 60 NA NA NOT_NAMED 2000-08-10 03:00:00 TS 28.1277 -79.0321 main 148 119 P_____________ AL042000 28.1277 -79.0321 TD 30 1009 -1 7 296
2000222N28286 2000 60 NA NA NOT_NAMED 2000-08-10 06:00:00 TS 28.3000 -79.3000 30 1010 hurdat_atl main 119 117 O_____________ hurdat_atl AL042000 28.3000 -79.3000 TD 30 1010 -1 4 339
2000222N28286 2000 60 NA NA NOT_NAMED 2000-08-10 09:00:00 TS 28.5074 -79.1979 main 126 126 P_____________ AL042000 28.5074 -79.1979 TD 30 1010 -1 5 41
2000222N28286 2000 60 NA NA NOT_NAMED 2000-08-10 12:00:00 TS 28.7000 -78.9000 30 1010 hurdat_atl main 157 157 O_____________ hurdat_atl AL042000 28.7000 -78.9000 TD 30 1010 -1 6 60
2000222N28286 2000 60 NA NA NOT_NAMED 2000-08-10 15:00:00 TS 28.8076 -78.6074 main 188 188 P_____________ AL042000 28.8076 -78.6074 TD 27 1010 -1 6 69
2000222N28286 2000 60 NA NA NOT_NAMED 2000-08-10 18:00:00 TS 28.9000 -78.3000 25 1011 hurdat_atl main 218 218 O_____________ hurdat_atl AL042000 28.9000 -78.3000 TD 25 1011 -1 5 64
2000222N28286 2000 60 NA NA NOT_NAMED 2000-08-10 21:00:00 TS 29.0499 -78.0500 main 249 249 P_____________ AL042000 29.0499 -78.0500 TD 25 1011 -1 5 55
2000222N28286 2000 60 NA NA NOT_NAMED 2000-08-11 00:00:00 TS 29.2000 -77.8000 25 1011 hurdat_atl main 274 274 O_____________ hurdat_atl AL042000 29.2000 -77.8000 TD 25 1011 -1 5 61
2000222N28286 2000 60 NA NA NOT_NAMED 2000-08-11 03:00:00 TS 29.3074 -77.5149 main 305 305 P_____________ AL042000 29.3074 -77.5149 TD 25 1011 -1 6 69
2000222N28286 2000 60 NA NA NOT_NAMED 2000-08-11 06:00:00 TS 29.4000 -77.2000 25 1012 hurdat_atl main 336 336 O_____________ hurdat_atl AL042000 29.4000 -77.2000 TD 25 1012 -1 6 72
2000222N28286 2000 60 NA NA NOT_NAMED 2000-08-11 09:00:00 TS 29.4977 -76.8577 main 367 367 P_____________ AL042000 29.4977 -76.8577 TD 25 1012 -1 6 72
2000222N28286 2000 60 NA NA NOT_NAMED 2000-08-11 12:00:00 TS 29.6000 -76.5000 25 1013 hurdat_atl main 407 O_____________ hurdat_atl AL042000 29.6000 -76.5000 TD 25 1013 -1 7 72

IBTrACS Databaseについて

本データベースは、米国NOAAが公開する1842年以降の世界の熱帯低気圧のベストトラックデータアーカイブInternational Best Track Archive for Climate Stewardship (IBTrACS)を、ウェブで閲覧しやすい形式に変換したものです。

最終更新日:2021-12-03